• Join FlightAware (Why Join?)
  • Login
  • US Flag 
01:48PM EST


 

Airport Tracker/Info


-or-


 

Live Flight TrackerFlight Track Log ✈ JZA8279 ✈ 02-May-2013 ✈ CYPR - CYVR

Flight Track Log - Related Links

Times and Time Zones

All times are in EDT time to prevent confusion due to time zone crossing. See the JZA8279 flight status page for this flight to view local times or setup timezone preferences in your user account.

Time Position Orientation Groundspeed Altitude Reporting Facility
EDT Latitude Longitude Course Direction KTS MPH feet Rate Location/Type
01:53PM 54.2333 -130.4500 136° Southeast 110 127 2,200  Level Vancouver Center
01:54PM 54.2000 -130.4167 150° Southeast 140 161 3,500 1,320 Climbing Vancouver Center
01:55PM 54.1667 -130.3833 150° Southeast 150 173 4,900 1,380 Climbing Vancouver Center
01:56PM 54.1167 -130.3500 159° South 170 196 6,300 1,440 Climbing Vancouver Center
01:57PM 53.9911 -129.9509 135° Southeast  Level FlightAware Approximate
01:57PM 54.1000 -130.2833 113° Southeast 170 196 7,800  Level Vancouver Center
01:58PM 53.9417 -129.8692 136° Southeast  Level FlightAware Approximate
01:58PM 54.0667 -130.2333 139° Southeast 180 207 8,500  Level Vancouver Center
01:59PM 54.0167 -130.1333 130° Southeast 220 253 9,000 480 Climbing Vancouver Center
02:00PM 53.9667 -130.0667 142° Southeast 230 265 9,500 480 Climbing Vancouver Center
02:01PM 53.9167 -129.9833 136° Southeast 240 276 10,000 420 Climbing Vancouver Center
02:02PM 53.8833 -129.9167 130° Southeast 250 288 10,400 480 Climbing Vancouver Center
02:03PM 53.8333 -129.8167 130° Southeast 250 288 11,000 480 Climbing Vancouver Center
02:04PM 53.7833 -129.7333 135° Southeast 250 288 11,400 420 Climbing Vancouver Center
02:05PM 53.7167 -129.6333 138° Southeast 260 299 11,900 480 Climbing Vancouver Center
02:06PM 53.6833 -129.5500 124° Southeast 260 299 12,400 480 Climbing Vancouver Center
02:07PM 53.6167 -129.4500 138° Southeast 260 299 12,900 480 Climbing Vancouver Center
02:08PM 53.5667 -129.4000 149° Southeast 270 311 13,400 480 Climbing Vancouver Center
02:09PM 53.5167 -129.3000 130° Southeast 270 311 13,900 480 Climbing Vancouver Center
02:10PM 53.4833 -129.2167 124° Southeast 270 311 14,400 480 Climbing Vancouver Center
02:11PM 53.4167 -129.1167 138° Southeast 270 311 14,900 480 Climbing Vancouver Center
02:12PM 53.3667 -129.0333 135° Southeast 250 288 15,400 480 Climbing Vancouver Center
02:13PM 53.3000 -128.9333 138° Southeast 270 311 15,900 480 Climbing Vancouver Center
02:14PM 53.2500 -128.8500 135° Southeast 260 299 16,400 540 Climbing Vancouver Center
02:15PM 53.2167 -128.7667 124° Southeast 270 311 17,000 600 Climbing Vancouver Center
02:16PM 53.1500 -128.6667 138° Southeast 270 311 17,600 480 Climbing Vancouver Center
02:17PM 53.1000 -128.5833 135° Southeast 260 299 18,000 120 Climbing Vancouver Center
02:18PM 53.0500 -128.5000 135° Southeast 260 299 17,900 180 Descending Vancouver Center
02:19PM 52.9833 -128.4333 149° Southeast 260 299 18,400 480 Climbing Vancouver Center
02:20PM 52.9500 -128.3500 124° Southeast 270 311 18,900 300 Climbing Vancouver Center
02:21PM 52.9000 -128.2500 130° Southeast 260 299 19,000  Climbing Vancouver Center
02:22PM 52.8333 -128.1667 143° Southeast 280 322 19,000  Level Vancouver Center
02:23PM 52.7667 -128.0833 143° Southeast 280 322 19,000  Level Vancouver Center
02:24PM 52.7167 -127.9833 130° Southeast 290 334 19,000  Level Vancouver Center
02:25PM 52.6500 -127.9000 143° Southeast 290 334 19,000  Level Vancouver Center
02:26PM 52.6167 -127.7833 115° Southeast 270 311 19,000  Level Vancouver Center
02:27PM 52.5500 -127.7167 149° Southeast 270 311 19,000  Level Vancouver Center
02:28PM 52.5000 -127.6333 135° Southeast 260 299 19,000  Level Vancouver Center
02:29PM 52.4500 -127.5500 135° Southeast 260 299 19,000  Level Vancouver Center
02:30PM 52.4000 -127.4667 135° Southeast 260 299 19,000  Level Vancouver Center
02:31PM 52.3333 -127.3833 143° Southeast 260 299 19,000  Level Vancouver Center
02:32PM 52.3000 -127.3167 129° Southeast 260 299 19,000  Level Vancouver Center
02:33PM 52.2500 -127.2333 134° Southeast 250 288 19,000  Level Vancouver Center
02:34PM 52.2000 -127.1500 134° Southeast 250 288 19,000  Level Vancouver Center
02:35PM 52.1500 -127.0833 141° Southeast 250 288 19,000  Level Vancouver Center
02:36PM 52.0833 -127.0000 142° Southeast 250 288 19,000  Level Vancouver Center
02:37PM 52.0333 -126.9167 134° Southeast 250 288 19,000  Level Vancouver Center
02:38PM 51.9833 -126.8333 134° Southeast 250 288 19,000  Level Vancouver Center
02:39PM 51.9333 -126.7833 148° Southeast 260 299 19,000  Level Vancouver Center
02:40PM 51.8667 -126.7000 142° Southeast 260 299 19,000  Level Vancouver Center
02:41PM 51.8333 -126.6000 118° Southeast 260 299 19,000  Level Vancouver Center
02:42PM 51.7833 -126.5167 134° Southeast 260 299 19,000  Level Vancouver Center
02:43PM 51.7333 -126.4333 134° Southeast 260 299 19,000  Level Vancouver Center
02:44PM 51.6667 -126.3833 155° Southeast 250 288 19,000  Level Vancouver Center
02:45PM 51.6167 -126.3500 158° South 240 276 19,000  Level Vancouver Center
02:46PM 51.5500 -126.3000 155° Southeast 230 265 19,000  Level Vancouver Center
02:47PM 51.4833 -126.2667 163° South 230 265 19,000  Level Vancouver Center
02:48PM 51.4333 -126.2333 157° South 230 265 19,000  Level Vancouver Center
02:49PM 51.3667 -126.2000 163° South 230 265 19,000 -240 Level Vancouver Center
02:50PM 51.3167 -126.1167 134° Southeast 250 288 18,600 -480 Descending Vancouver Center
02:51PM 51.2667 -126.0333 134° Southeast 270 311 18,100 -240 Descending Vancouver Center
02:52PM 51.2000 -125.9333 137° Southeast 270 311 18,200 -240 Climbing Vancouver Center
02:53PM 51.1500 -125.8500 134° Southeast 280 322 17,700 -600 Descending Vancouver Center
02:54PM 51.1167 -125.7667 122° Southeast 280 322 17,100 -300 Descending Vancouver Center
02:55PM 51.0667 -125.6833 134° Southeast 280 322 17,100  Level Vancouver Center
02:56PM 51.0000 -125.6000 142° Southeast 270 311 17,100  Level Vancouver Center
02:57PM 50.9500 -125.5167 134° Southeast 260 299 17,100  Level Vancouver Center
02:58PM 50.9000 -125.4333 134° Southeast 260 299 17,100  Level Vancouver Center
02:59PM 50.8500 -125.3667 140° Southeast 270 311 17,100  Level Vancouver Center
03:00PM 50.8000 -125.2833 133° Southeast 260 299 17,100  Level Vancouver Center
03:01PM 50.7500 -125.1667 124° Southeast 270 311 17,100  Level Vancouver Center
03:02PM 50.6833 -125.0833 142° Southeast 270 311 17,100 -60 Level Vancouver Center
03:03PM 50.6333 -125.0167 140° Southeast 270 311 17,000 -60 Descending Vancouver Center
03:04PM 50.5833 -124.9333 133° Southeast 270 311 17,000  Level Vancouver Center
03:05PM 50.5167 -124.8500 142° Southeast 270 311 17,000  Level Vancouver Center
03:06PM 50.4667 -124.7667 133° Southeast 270 311 17,000  Level Vancouver Center
03:07PM 50.4167 -124.6833 133° Southeast 270 311 17,100  Climbing Vancouver Center
03:08PM 50.3667 -124.6167 140° Southeast 270 311 17,100  Level Vancouver Center
03:09PM 50.3000 -124.5000 132° Southeast 270 311 17,100  Level Vancouver Center
03:10PM 50.2500 -124.4333 140° Southeast 280 322 17,100  Level Vancouver Center
03:11PM 50.2000 -124.3500 133° Southeast 280 322 17,100 -60 Level Vancouver Center
03:12PM 50.1500 -124.2667 133° Southeast 270 311 17,000 -360 Descending Vancouver Center
03:13PM 50.0833 -124.1667 136° Southeast 280 322 16,400 -660 Descending Vancouver Center
03:14PM 50.0333 -124.0833 133° Southeast 290 334 15,700 -960 Descending Vancouver Center
03:15PM 49.9667 -123.9833 136° Southeast 300 345 14,500 -1,140 Descending Vancouver Center
03:16PM 49.9000 -123.9000 141° Southeast 300 345 13,500 -1,020 Descending Vancouver Center
03:17PM 49.8500 -123.8167 133° Southeast 290 334 12,500 -900 Descending Vancouver Center
03:18PM 49.8000 -123.7167 128° Southeast 290 334 11,700 -900 Descending Vancouver Center
03:19PM 49.7167 -123.6667 159° South 270 311 10,800 -840 Descending Vancouver Center
03:20PM 49.6667 -123.6167 147° Southeast 270 311 10,100 -420 Descending Vancouver Center
03:21PM 49.6000 -123.5667 154° Southeast 270 311 10,000 -60 Descending Vancouver Center
03:22PM 49.5333 -123.5167 154° Southeast 270 311 10,000  Level Vancouver Center
03:23PM 49.4667 -123.4667 154° Southeast 260 299 10,000  Level Vancouver Center
03:24PM 49.4000 -123.4167 154° Southeast 260 299 10,000  Level Vancouver Center
03:25PM 49.3333 -123.3667 154° Southeast 260 299 10,000  Level Vancouver Center
03:26PM 49.2667 -123.3167 154° Southeast 260 299 10,000 -840 Level Vancouver Center
03:27PM 49.2500 -123.1833 101° East 280 322 8,400 -2,100 Descending Vancouver Center
03:28PM 49.2500 -123.0833 90° East 270 311 5,900 -2,460 Descending Vancouver Center
03:29PM 49.2333 -122.9833 104° East 250 288 3,500 -1,500 Descending Vancouver Center
03:30PM 49.2000 -122.9000 121° Southeast 200 230 3,000 -540 Descending Vancouver Center
03:31PM 49.1833 -122.9500 243° Southwest 180 207 2,500 -660 Descending Vancouver Center
03:32PM 49.1667 -123.0333 253° West 170 196 1,700 -840 Descending Vancouver Center
03:33PM 49.1667 -123.0833 270° West 150 173 900 -720 Descending Vancouver Center
03:34PM 49.1833 -123.1333 297° West 120 138 300 -600 Descending Vancouver Center